N0BHC Weather Reports


time (UTC)temp
C
wind
direction
speed
KPH
gust
KPH
rain 1hr
cm
rain 24hr
cm
rain mn
cm
humidity
%
barometer
mb
20190720164457 16 158 1.6 11.3 0.48 1.09 1.09 90 1016.6
20190720162957 16 315 1.6 9.7 0.43 0.99 0.99 90 1018.8
20190720161456 16 285 1.6 19.3 0.33 0.89 0.89 90 1019.8
20190720155956 16 44 6.4 33.8 0.23 0.76 0.76 90 1019.0
20190720155752 16 12 8.0 9.7 0.00 0.00 0.00 90 1019.1
20190720154456 17 358 8.0 20.9 0.08 0.61 0.61 90 1018.2
20190720152957 16 38 1.6 14.5 0.03 0.56 0.56 90 1014.6
20190720151456 17 18 4.8 14.5 0.03 0.56 0.56 90 1012.3
20190720145957 16 29 4.8 14.5 0.00 0.53 0.53 90 1012.4
20190720144456 17 65 9.7 27.4 0.05 0.53 0.53 90 1012.0
20190720142958 17 91 11.3 37.0 0.18 0.53 0.53 90 1010.2
20190720141456 17 62 19.3 53.1 0.48 0.53 0.53 90 1009.3
20190720135956 18 88 14.5 37.0 0.53 0.53 0.53 90 1011.2
20190720134758 19 81 14.5 22.5 0.00 0.00 0.00 90 1012.8
20190720134456 19 70 16.1 22.5 0.48 0.48 0.48 90 1013.3
20190720132957 21 63 9.7 12.9 0.36 0.36 0.36 89 1016.5
20190720131456 21 275 11.3 37.0 0.05 0.05 0.05 84 1016.7
20190720125956 21 81 12.9 22.5 0.00 0.00 0.00 79 1011.8
20190720124456 21 50 11.3 27.4 0.00 0.00 0.00 82 1011.7
20190720122958 21 48 16.1 27.4 0.00 0.00 0.00 81 1010.2
20190720121456 22 68 11.3 22.5 0.00 0.00 0.00 86 1010.5
20190720115957 22 71 9.7 16.1 0.00 0.00 0.00 88 1010.5
20190720114457 21 54 11.3 16.1 0.00 0.00 0.00 90 1009.3
20190720112957 21 79 9.7 16.1 0.00 0.00 0.00 90 1008.8
20190720111752 21 79 8.0 11.3 0.00 0.00 0.00 90 1010.0
20190720111456 21 69 8.0 14.5 0.00 0.00 0.00 90 1010.0
20190720105956 21 57 9.7 12.9 0.00 0.00 0.00 90 1010.3
20190720105753 21 76 3.2 9.7 0.00 0.00 0.00 90 1010.2
20190720104456 21 56 8.0 11.3 0.00 0.00 0.00 90 1010.5
20190720102957 21 55 4.8 9.7 0.00 0.00 0.00 90 1010.6
20190720101914 21 60 4.8 8.0 0.00 0.00 0.00 90 1010.4
20190720101753 21 60 4.8 8.0 0.00 0.00 0.00 90 1010.4
20190720101456 21 45 8.0 12.9 0.00 0.00 0.00 90 1010.4
20190720095957 21 53 6.4 12.9 0.00 0.00 0.00 90 1010.2
20190720094456 22 6 4.8 12.9 0.00 0.00 0.00 90 1009.9
20190720092958 22 37 0.0 0.0 0.00 0.00 0.00 90 1009.7
20190720091935 22 37 0.0 0.0 0.00 0.00 0.00 90 1009.5
20190720091754 22 37 0.0 0.0 0.00 0.00 0.00 90 1009.5
20190720091457 22 37 0.0 0.0 0.00 0.00 0.00 90 1009.5
20190720085957 22 37 0.0 0.0 0.00 0.00 0.00 90 1009.4
20190720085756 22 37 0.0 0.0 0.00 0.00 0.00 90 1009.4
20190720084456 22 37 0.0 0.0 0.00 0.00 0.00 90 1009.4
20190720082958 22 37 0.0 0.0 0.00 0.00 0.00 90 1009.6
20190720082007 22 37 0.0 0.0 0.00 0.00 0.00 90 1009.6
20190720081757 22 37 0.0 0.0 0.00 0.00 0.00 90 1009.6
20190720081457 22 37 0.0 0.0 0.00 0.00 0.00 90 1009.6
20190720075957 22 37 0.0 0.0 0.00 0.00 0.00 90 1009.4
20190720075755 23 37 0.0 0.0 0.00 0.00 0.00 90 1009.5
20190720074456 23 37 0.0 0.0 0.00 0.00 0.00 90 1009.6
20190720072959 23 37 0.0 0.0 0.00 0.00 0.00 90 1009.4
20190720071457 23 37 0.0 0.0 0.00 0.00 0.00 90 1009.5
20190720065957 23 37 0.0 0.0 0.00 0.00 0.00 90 1009.5
20190720065755 23 37 0.0 0.0 0.00 0.00 0.00 89 1009.5
20190720064456 23 37 0.0 0.0 0.00 0.00 0.00 89 1009.5
20190720062957 23 37 0.0 0.0 0.00 0.00 0.00 89 1009.4
20190720061456 23 37 0.0 0.0 0.00 0.00 0.00 88 1009.6
20190720055957 24 37 0.0 0.0 0.00 0.00 0.00 88 1009.4
20190720054458 24 37 0.0 11.3 0.00 0.00 0.00 87 1009.4
20190720052958 25 62 8.0 14.5 0.00 0.00 0.00 87 1009.4
20190720051456 25 65 6.4 12.9 0.00 0.00 0.00 87 1009.2
20190720045957 25 35 4.8 12.9 0.00 0.00 0.00 86 1008.7
20190720044457 26 36 8.0 16.1 0.00 0.00 0.00 86 1008.7
20190720043753 26 43 9.7 11.3 0.00 0.00 0.00 85 1008.5
20190720042958 26 50 8.0 11.3 0.00 0.00 0.00 85 1008.4
20190720041457 26 55 8.0 9.7 0.00 0.00 0.00 84 1008.3
20190720035957 26 31 0.0 0.0 0.00 0.00 0.00 82 1008.1
20190720034457 27 31 0.0 0.0 0.00 0.00 0.00 80 1007.8
20190720032959 27 31 0.0 0.0 0.00 0.00 0.00 80 1007.7
20190720031457 27 31 0.0 8.0 0.00 0.00 0.00 79 1007.4
20190720025957 27 36 3.2 8.0 0.00 0.00 0.00 78 1007.1
20190720024933 27 54 3.2 8.0 0.00 0.00 0.00 77 1007.0
20190720024753 27 54 3.2 8.0 0.00 0.00 0.00 77 1007.0
20190720024456 27 48 4.8 11.3 0.00 0.00 0.00 77 1007.0
20190720023754 27 30 4.8 4.8 0.00 0.00 0.00 76 1006.9
20190720022959 27 40 1.6 11.3 0.00 0.00 0.00 76 1006.8
20190720022754 28 25 3.2 4.8 0.00 0.00 0.00 76 1006.7
20190720021753 28 44 3.2 8.0 0.00 0.00 0.00 76 1006.4
20190720021457 28 45 4.8 14.5 0.00 0.00 0.00 77 1006.4
20190720015957 30 53 11.3 27.4 0.00 0.00 0.00 76 1006.2
20190720015754 30 53 12.9 16.1 0.00 0.00 0.00 77 1005.8
20190720014457 31 260 1.6 14.5 0.00 0.00 0.00 79 1005.2
20190720012958 31 277 3.2 16.1 0.00 0.00 0.00 78 1005.0
20190720012754 31 273 8.0 12.9 0.00 0.00 0.00 78 1005.1
20190720012133 31 273 3.2 12.9 0.00 0.00 0.00 77 1005.0
20190720011755 31 273 3.2 12.9 0.00 0.00 0.00 77 1005.0
20190720011457 31 194 0.0 12.9 0.00 0.00 0.00 77 1005.0
20190720005957 31 264 8.0 19.3 0.00 0.00 0.00 76 1005.0
20190720004457 31 11 3.2 29.0 0.00 0.00 0.00 75 1004.9
20190720003753 31 315 3.2 8.0 0.00 0.00 0.00 75 1004.8
20190720002958 31 270 4.8 29.0 0.00 0.00 0.00 75 1004.8
20190720001754 32 264 4.8 8.0 0.00 0.00 0.00 76 1004.6
20190720001457 32 270 4.8 20.9 0.00 0.00 0.00 76 1004.5
20190719235957 32 1 4.8 19.3 0.00 0.00 0.00 77 1004.4
20190719234754 32 288 4.8 16.1 0.00 0.00 0.00 75 1004.3
20190719234457 32 309 4.8 20.9 0.00 0.00 0.00 75 1004.3
20190719233754 32 352 1.6 8.0 0.00 0.00 0.00 74 1004.2
20190719232958 32 273 8.0 29.0 0.00 0.00 0.00 74 1004.1
20190719232754 32 289 3.2 8.0 0.00 0.00 0.00 73 1004.0
20190719231755 32 323 9.7 11.3 0.00 0.00 0.00 73 1003.9
20190719231457 32 259 9.7 27.4 0.00 0.00 0.00 73 1003.9
20190719225957 32 223 8.0 22.5 0.00 0.00 0.00 73 1003.8
20190719225753 32 226 8.0 11.3 0.00 0.00 0.00 72 1003.8
20190719224457 32 270 12.9 32.2 0.00 0.00 0.00 71 1003.3
20190719222958 32 275 11.3 29.0 0.00 0.00 0.00 68 1002.8
20190719221457 33 214 16.1 33.8 0.00 0.00 0.00 68 1002.7
20190719215957 32 281 19.3 41.8 0.00 0.00 0.00 69 1003.1
20190719214457 32 194 14.5 32.2 0.00 0.00 0.00 69 1003.5
20190719212959 32 251 16.1 38.6 0.00 0.00 0.00 68 1003.7
20190719211457 32 220 20.9 35.4 0.00 0.00 0.00 70 1003.7
20190719210754 33 234 19.3 27.4 0.00 0.00 0.00 71 1003.8
20190719205957 32 219 16.1 41.8 0.00 0.00 0.00 72 1003.7
20190719204457 32 236 17.7 38.6 0.00 0.00 0.00 72 1003.6
20190719202958 32 208 16.1 41.8 0.00 0.00 0.00 72 1003.9
20190719201754 32 240 22.5 32.2 0.00 0.00 0.00 72 1004.3
20190719201457 32 218 27.4 45.1 0.00 0.00 0.00 72 1004.3
20190719195957 32 195 11.3 25.7 0.00 0.00 0.00 79 1004.5
20190719194457 31 242 6.4 29.0 0.00 0.00 0.00 82 1005.0
20190719192959 31 167 12.9 29.0 0.00 0.00 0.00 80 1005.3
20190719191457 31 102 6.4 25.7 0.00 0.00 0.00 82 1005.7
20190719190754 31 124 14.5 24.1 0.00 0.00 0.00 85 1006.0
20190719185958 31 148 9.7 24.1 0.00 0.00 0.00 85 1006.1
20190719184458 30 157 8.0 20.9 0.00 0.00 0.00 87 1006.3
20190719182958 30 108 4.8 20.9 0.00 0.00 0.00 87 1006.4
20190719181458 30 97 6.4 14.5 0.00 0.00 0.00 86 1007.2
20190719175957 30 61 4.8 19.3 0.00 0.00 0.00 83 1007.5
20190719174857 30 199 11.3 19.3 0.00 0.00 0.00 82 1007.6
20190719174754 30 199 11.3 19.3 0.00 0.00 0.00 82 1007.6
20190719174457 30 240 9.7 20.9 0.00 0.00 0.00 82 1007.5
20190719172959 30 152 8.0 22.5 0.00 0.00 0.00 85 1006.4
20190719171458 30 217 8.0 27.4 0.00 0.00 0.00 84 1005.9
20190719165957 30 143 16.1 29.0 0.00 0.00 0.00 82 1006.0
20190719165012 29 210 11.3 24.1 0.00 0.00 0.00 84 1006.2